Time;durP1;ratioP1;P1;durP2;ratioP2;P2;SDS_P1;SDS_P2;PMS_P1;PMS_P2;Temp;Humidity;BMP_temperature;BMP_pressure;BME280_temperature;BME280_humidity;BME280_pressure;Samples;Min_cycle;Max_cycle;Signal;HPM_P1;HPM_P2
2021/09/10 00:02:22;;;;;;;;;;;;;;;23.78;100.00;98629.47;5093601;28;19920;-61
2021/09/10 00:04:47;;;;;;;;;;;;;;;23.55;100.00;98628.94;5091806;28;19919;-61
2021/09/10 00:07:12;;;;;;;;;;;;;;;23.63;100.00;98630.03;5087473;28;19920;-61
2021/09/10 00:09:38;;;;;;;;;;;;;;;23.86;100.00;98630.59;5080901;28;20395;-61
2021/09/10 00:12:03;;;;;;;;;;;;;;;23.36;100.00;98629.81;5064761;28;19916;-61
2021/09/10 00:14:29;;;;;;;;;;;;;;;23.65;100.00;98623.69;5080942;28;20232;-62
2021/09/10 00:16:54;;;;;;;;;;;;;;;23.66;100.00;98625.34;5080690;28;19912;-62
2021/09/10 00:19:19;;;;;;;;;;;;;;;23.84;100.00;98624.66;5085232;28;19920;-61
2021/09/10 00:21:45;;;;;;;;;;;;;;;23.21;100.00;98630.38;5082758;28;19915;-61
2021/09/10 00:24:10;;;;;;;;;;;;;;;23.72;100.00;98619.53;5082744;28;19912;-62
2021/09/10 00:26:35;;;;;;;;;;;;;;;23.96;100.00;98626.13;5083842;28;19919;-62
2021/09/10 00:29:00;;;;;;;;;;;;;;;23.51;100.00;98622.31;5082081;28;20398;-62
2021/09/10 00:31:26;;;;;;;;;;;;;;;23.58;100.00;98619.94;5063117;28;19922;-62
2021/09/10 00:33:51;;;;;;;;;;;;;;;23.90;100.00;98631.94;5079748;28;20245;-62
2021/09/10 00:36:16;;;;;;;;;;;;;;;23.71;100.00;98632.81;5084764;28;19955;-62
2021/09/10 00:38:41;;;;;;;;;;;;;;;23.67;100.00;98637.50;5083167;28;20392;-62
2021/09/10 00:41:07;;;;;;;;;;;;;;;23.61;100.00;98632.81;5086207;28;19964;-63
2021/09/10 00:43:32;;;;;;;;;;;;;;;23.83;100.00;98636.13;5063683;28;19908;-62
2021/09/10 00:45:58;;;;;;;;;;;;;;;23.76;100.00;98633.22;5083870;28;20129;-62
2021/09/10 00:48:23;;;;;;;;;;;;;;;23.64;100.00;98635.16;5065072;28;19908;-62
2021/09/10 00:50:49;;;;;;;;;;;;;;;23.75;100.00;98640.28;5093511;28;20582;-62
2021/09/10 00:53:14;;;;;;;;;;;;;;;23.77;100.00;98638.34;5085871;28;20348;-62
2021/09/10 00:55:40;;;;;;;;;;;;;;;23.66;100.00;98646.38;5083483;28;19912;-62
2021/09/10 00:58:06;;;;;;;;;;;;;;;23.43;100.00;98639.78;5068365;28;19919;-63
2021/09/10 01:00:31;;;;;;;;;;;;;;;23.65;100.00;98644.72;5083872;28;20097;-62
2021/09/10 01:02:56;;;;;;;;;;;;;;;23.36;100.00;98642.13;5083146;28;20423;-62
2021/09/10 01:05:22;;;;;;;;;;;;;;;23.51;100.00;98645.13;5082121;28;19907;-62
2021/09/10 01:07:47;;;;;;;;;;;;;;;23.28;100.00;98648.06;5082093;28;19912;-62
2021/09/10 01:10:13;;;;;;;;;;;;;;;23.55;100.00;98647.34;5082134;28;20273;-62
2021/09/10 01:12:38;;;;;;;;;;;;;;;23.26;100.00;98650.00;5063402;28;19934;-62
2021/09/10 01:15:04;;;;;;;;;;;;;;;23.30;100.00;98659.25;5064186;28;19911;-62
2021/09/10 01:17:29;;;;;;;;;;;;;;;22.95;100.00;98647.47;5082150;28;20010;-62
2021/09/10 01:19:55;;;;;;;;;;;;;;;23.26;100.00;98650.00;5063652;28;19908;-62
2021/09/10 01:22:20;;;;;;;;;;;;;;;23.28;100.00;98653.31;5063196;28;20323;-62
2021/09/10 01:25:04;;;;;;;;;;;;;;;23.21;100.00;98649.56;5062773;28;20320;-61
2021/09/10 01:27:29;;;;;;;;;;;;;;;23.07;100.00;98650.00;5079648;28;20277;-63
2021/09/10 01:29:55;;;;;;;;;;;;;;;23.25;100.00;98650.16;5060112;28;19915;-63
2021/09/10 01:32:20;;;;;;;;;;;;;;;23.37;100.00;98652.47;5060098;28;19920;-62
2021/09/10 01:34:45;;;;;;;;;;;;;;;23.49;100.00;98657.59;5062088;28;19919;-63
2021/09/10 01:37:11;;;;;;;;;;;;;;;23.17;100.00;98656.94;5061501;28;19912;-62
2021/09/10 01:39:36;;;;;;;;;;;;;;;;;;5071616;28;20075;-62
2021/09/10 01:42:01;;;;;;;;;;;;;;;23.20;100.00;98660.25;5066410;28;19942;-62
2021/09/10 01:44:27;;;;;;;;;;;;;;;23.25;100.00;98664.09;5061909;28;19912;-62
2021/09/10 01:46:52;;;;;;;;;;;;;;;23.35;100.00;98659.66;5064226;28;19912;-63
2021/09/10 01:49:17;;;;;;;;;;;;;;;22.91;100.00;98661.81;5062396;28;19916;-63
2021/09/10 01:51:43;;;;;;;;;;;;;;;22.46;100.00;98662.25;5058815;28;19991;-63
2021/09/10 01:54:08;;;;;;;;;;;;;;;22.79;100.00;98668.16;5061117;28;19908;-63
2021/09/10 01:56:33;;;;;;;;;;;;;;;22.84;100.00;98665.13;5058507;28;19908;-63
2021/09/10 01:58:59;;;;;;;;;;;;;;;22.90;100.00;98667.22;5061229;28;20428;-63
2021/09/10 02:01:24;;;;;;;;;;;;;;;23.46;100.00;98660.50;5061202;28;19965;-62
2021/09/10 02:03:50;;;;;;;;;;;;;;;23.56;100.00;98666.56;5061338;28;19912;-62
2021/09/10 02:06:15;;;;;;;;;;;;;;;23.48;100.00;98659.41;5057236;28;19951;-63
2021/09/10 02:08:40;;;;;;;;;;;;;;;23.42;100.00;98664.38;5062400;28;19908;-62
2021/09/10 02:11:06;;;;;;;;;;;;;;;23.27;100.00;98670.06;5058581;28;19915;-63
2021/09/10 02:13:31;;;;;;;;;;;;;;;23.18;100.00;98673.50;5059979;28;19920;-62
2021/09/10 02:15:56;;;;;;;;;;;;;;;22.97;100.00;98670.97;5060489;28;19905;-62
2021/09/10 02:18:21;;;;;;;;;;;;;;;23.23;100.00;98660.78;5060000;28;20280;-63
2021/09/10 02:20:47;;;;;;;;;;;;;;;23.44;100.00;98665.06;5061786;28;20097;-62
2021/09/10 02:23:12;;;;;;;;;;;;;;;23.44;100.00;98665.06;5060682;28;19965;-62
2021/09/10 02:25:37;;;;;;;;;;;;;;;23.19;100.00;98667.28;5063165;28;19994;-62
2021/09/10 02:28:03;;;;;;;;;;;;;;;23.27;100.00;98658.72;5060476;28;20336;-61
2021/09/10 02:30:28;;;;;;;;;;;;;;;23.35;100.00;98654.41;5060439;28;20533;-62
2021/09/10 02:32:53;;;;;;;;;;;;;;;23.19;100.00;98662.03;5069340;28;19924;-62
2021/09/10 02:35:18;;;;;;;;;;;;;;;23.27;100.00;98656.91;5080761;28;19916;-62
2021/09/10 02:37:44;;;;;;;;;;;;;;;23.22;100.00;98659.13;5080265;28;20401;-62
2021/09/10 02:40:09;;;;;;;;;;;;;;;23.17;100.00;98661.31;5078258;28;19908;-62
2021/09/10 02:42:35;;;;;;;;;;;;;;;23.31;100.00;98663.56;5078091;28;19916;-62
2021/09/10 02:45:00;;;;;;;;;;;;;;;23.11;100.00;98661.91;5081622;28;19919;-63
2021/09/10 02:47:25;;;;;;;;;;;;;;;23.14;100.00;98664.22;5082491;28;19912;-62
2021/09/10 02:49:50;;;;;;;;;;;;;;;23.02;100.00;98658.28;5080414;28;20357;-62
2021/09/10 02:52:16;;;;;;;;;;;;;;;23.12;100.00;98661.72;5079600;28;20007;-62
2021/09/10 02:54:41;;;;;;;;;;;;;;;23.06;100.00;98650.94;5058793;28;20313;-62
2021/09/10 02:57:06;;;;;;;;;;;;;;;22.78;100.00;98653.38;5081271;28;19915;-62
2021/09/10 02:59:32;;;;;;;;;;;;;;;23.12;100.00;98658.28;5078578;28;19966;-62
2021/09/10 03:01:57;;;;;;;;;;;;;;;23.23;100.00;98650.28;5077628;28;20874;-63
2021/09/10 03:04:22;;;;;;;;;;;;;;;22.96;100.00;98656.97;5076486;28;20289;-62
2021/09/10 03:06:48;;;;;;;;;;;;;;;23.21;100.00;98652.22;5079941;28;20206;-62
2021/09/10 03:09:13;;;;;;;;;;;;;;;23.08;100.00;98657.75;5081323;28;19911;-62
2021/09/10 03:11:38;;;;;;;;;;;;;;;22.64;100.00;98656.38;5080209;28;20025;-62
2021/09/10 03:14:04;;;;;;;;;;;;;;;22.41;100.00;98648.72;5078781;28;19924;-62
2021/09/10 03:16:31;;;;;;;;;;;;;;;22.96;100.00;98649.09;5061989;28;19911;-63
2021/09/10 03:18:56;;;;;;;;;;;;;;;22.94;100.00;98651.06;5082478;28;19944;-62
2021/09/10 03:21:22;;;;;;;;;;;;;;;23.12;100.00;98647.78;5081396;28;20589;-62
2021/09/10 03:23:47;;;;;;;;;;;;;;;22.83;100.00;98642.47;5078132;28;20035;-62
2021/09/10 03:26:12;;;;;;;;;;;;;;;22.92;100.00;98645.13;5079380;28;20014;-62
2021/09/10 03:28:38;;;;;;;;;;;;;;;22.86;100.00;98642.22;5078338;28;19969;-63
2021/09/10 03:31:03;;;;;;;;;;;;;;;22.84;100.00;98639.72;5083167;28;19984;-63
2021/09/10 03:33:28;;;;;;;;;;;;;;;22.94;100.00;98639.72;5079224;28;20049;-62
2021/09/10 03:35:54;;;;;;;;;;;;;;;22.86;100.00;98640.41;5081716;28;19904;-62
2021/09/10 03:38:19;;;;;;;;;;;;;;;22.67;100.00;98642.97;5078292;28;19912;-63
2021/09/10 03:40:44;;;;;;;;;;;;;;;22.70;100.00;98643.56;5081329;28;20117;-62
2021/09/10 03:43:09;;;;;;;;;;;;;;;22.85;100.00;98646.59;5081695;28;19927;-63
2021/09/10 03:45:35;;;;;;;;;;;;;;;22.69;100.00;98641.03;5063722;28;20565;-62
2021/09/10 03:48:01;;;;;;;;;;;;;;;22.90;100.00;98643.59;5078945;28;20101;-62
2021/09/10 03:50:26;;;;;;;;;;;;;;;22.64;100.00;98643.25;5080108;28;19920;-62
2021/09/10 03:52:51;;;;;;;;;;;;;;;22.71;100.00;98639.94;5087352;28;20034;-62
2021/09/10 03:55:17;;;;;;;;;;;;;;;22.20;100.00;98650.53;5082835;28;19962;-62
2021/09/10 03:57:42;;;;;;;;;;;;;;;22.26;100.00;98650.88;5080916;28;19931;-62
2021/09/10 04:00:08;;;;;;;;;;;;;;;22.35;100.00;98649.22;5085550;28;20286;-62
2021/09/10 04:02:34;;;;;;;;;;;;;;;22.11;100.00;98642.50;5084790;28;19993;-62
2021/09/10 04:04:59;;;;;;;;;;;;;;;22.27;100.00;98635.97;5063696;28;19912;-61
2021/09/10 04:07:24;;;;;;;;;;;;;;;22.40;100.00;98643.59;5081909;28;19919;-62
2021/09/10 04:09:49;;;;;;;;;;;;;;;22.51;100.00;98639.09;5087184;28;19919;-61
2021/09/10 04:12:15;;;;;;;;;;;;;;;22.41;100.00;98645.25;5084969;28;20313;-62
2021/09/10 04:14:40;;;;;;;;;;;;;;;22.18;100.00;98652.47;5083841;28;19977;-62
2021/09/10 04:17:05;;;;;;;;;;;;;;;22.08;100.00;98653.25;5086207;28;20894;-62
2021/09/10 04:19:31;;;;;;;;;;;;;;;22.38;100.00;98651.59;5087216;28;19920;-62
2021/09/10 04:21:56;;;;;;;;;;;;;;;22.64;100.00;98659.00;5086217;28;20247;-62
2021/09/10 04:24:21;;;;;;;;;;;;;;;22.39;100.00;98660.31;5088994;28;19919;-62
2021/09/10 04:26:47;;;;;;;;;;;;;;;22.43;100.00;98667.78;5085778;28;19919;-62
2021/09/10 04:29:12;;;;;;;;;;;;;;;22.48;100.00;98659.50;5094012;28;19920;-62
2021/09/10 04:31:37;;;;;;;;;;;;;;;22.12;100.00;98665.16;5089372;28;20047;-62
2021/09/10 04:34:03;;;;;;;;;;;;;;;22.30;100.00;98654.06;5089908;28;20185;-62
2021/09/10 04:36:29;;;;;;;;;;;;;;;22.51;100.00;98654.84;5092828;27;19965;-62
2021/09/10 04:38:54;;;;;;;;;;;;;;;22.37;100.00;98657.81;5075784;28;19924;-62
2021/09/10 04:41:19;;;;;;;;;;;;;;;22.16;100.00;98649.13;5085539;28;19923;-62
2021/09/10 04:43:45;;;;;;;;;;;;;;;22.27;100.00;98652.53;5086396;28;19916;-62
2021/09/10 04:46:10;;;;;;;;;;;;;;;22.62;100.00;98664.38;5086329;28;19963;-62
2021/09/10 04:48:35;;;;;;;;;;;;;;;22.73;100.00;98660.81;5083519;28;20329;-62
2021/09/10 04:51:01;;;;;;;;;;;;;;;22.63;100.00;98658.19;5082892;28;20203;-62
2021/09/10 04:53:26;;;;;;;;;;;;;;;22.03;100.00;98658.06;5081582;28;19937;-63
2021/09/10 04:55:51;;;;;;;;;;;;;;;22.24;100.00;98654.59;5090587;28;19962;-62
2021/09/10 04:58:17;;;;;;;;;;;;;;;22.12;100.00;98657.28;5092421;28;19961;-62
2021/09/10 05:00:42;;;;;;;;;;;;;;;22.38;100.00;98659.47;5093045;28;19915;-62
2021/09/10 05:03:08;;;;;;;;;;;;;;;22.50;100.00;98663.66;5092534;28;19923;-62
2021/09/10 05:05:33;;;;;;;;;;;;;;;22.23;100.00;98660.78;5093891;28;19920;-62
2021/09/10 05:07:58;;;;;;;;;;;;;;;22.02;100.00;98659.00;5094457;28;19977;-62
2021/09/10 05:10:23;;;;;;;;;;;;;;;22.26;100.00;98660.50;5092263;28;19916;-62
2021/09/10 05:12:49;;;;;;;;;;;;;;;22.41;100.00;98666.25;5088938;28;19916;-62
2021/09/10 05:15:14;;;;;;;;;;;;;;;22.45;100.00;98655.34;5090001;28;20021;-62
2021/09/10 05:17:40;;;;;;;;;;;;;;;21.98;100.00;98660.22;5088765;28;19994;-62
2021/09/10 05:20:07;;;;;;;;;;;;;;;22.49;100.00;98656.75;5089942;28;19912;-62
2021/09/10 05:22:33;;;;;;;;;;;;;;;22.68;100.00;98658.59;5091839;28;19922;-62
2021/09/10 05:24:58;;;;;;;;;;;;;;;22.45;100.00;98665.84;5094764;28;19920;-62
2021/09/10 05:27:23;;;;;;;;;;;;;;;22.17;100.00;98664.75;5094790;28;20374;-62
2021/09/10 05:29:49;;;;;;;;;;;;;;;22.11;100.00;98668.72;5094068;28;20147;-62
2021/09/10 05:32:14;;;;;;;;;;;;;;;22.73;100.00;98659.03;5077508;28;19927;-62
2021/09/10 05:34:40;;;;;;;;;;;;;;;22.96;100.00;98667.50;5097501;28;19915;-63
2021/09/10 05:37:05;;;;;;;;;;;;;;;22.76;100.00;98664.03;5095828;28;19916;-60
2021/09/10 05:39:30;;;;;;;;;;;;;;;22.95;100.00;98667.66;5081203;28;19955;-60
2021/09/10 05:41:56;;;;;;;;;;;;;;;22.91;100.00;98667.06;5089893;28;19912;-60
2021/09/10 05:44:21;;;;;;;;;;;;;;;22.82;100.00;98673.13;5091912;28;19915;-60
2021/09/10 05:46:46;;;;;;;;;;;;;;;22.76;100.00;98679.78;5092908;28;19915;-60
2021/09/10 05:49:12;;;;;;;;;;;;;;;22.92;100.00;98678.41;5091050;28;19957;-60
2021/09/10 05:51:37;;;;;;;;;;;;;;;22.73;100.00;98689.69;5093052;28;20018;-60
2021/09/10 05:54:03;;;;;;;;;;;;;;;23.05;100.00;98684.25;5063111;28;20592;-60
2021/09/10 05:56:28;;;;;;;;;;;;;;;23.18;100.00;98689.28;5074440;28;19916;-60
2021/09/10 05:58:53;;;;;;;;;;;;;;;22.89;100.00;98705.75;5091867;28;19916;-60
2021/09/10 06:01:19;;;;;;;;;;;;;;;23.02;100.00;98692.44;5089282;28;19923;-60
2021/09/10 06:03:44;;;;;;;;;;;;;;;23.17;100.00;98698.97;5091279;28;20345;-60
2021/09/10 06:06:10;;;;;;;;;;;;;;;23.01;100.00;98697.81;5092961;28;19916;-61
2021/09/10 06:08:36;;;;;;;;;;;;;;;23.13;100.00;98699.38;5092081;28;19947;-61
2021/09/10 06:11:01;;;;;;;;;;;;;;;23.00;100.00;98704.03;5073181;28;20375;-61
2021/09/10 06:13:27;;;;;;;;;;;;;;;23.11;100.00;98698.66;5063812;28;19919;-61
2021/09/10 06:15:52;;;;;;;;;;;;;;;23.43;100.00;98703.66;5092471;28;19927;-60
2021/09/10 06:18:25;;;;;;;;;;;;;;;23.43;100.00;98703.66;5092434;28;20013;-59
2021/09/10 06:20:50;;;;;;;;;;;;;;;23.82;100.00;98703.66;5093426;28;19926;-60
2021/09/10 06:23:16;;;;;;;;;;;;;;;23.80;100.00;98708.25;5093951;28;19915;-59
2021/09/10 06:25:41;;;;;;;;;;;;;;;23.91;100.00;98707.25;5079464;28;19924;-60
2021/09/10 06:28:08;;;;;;;;;;;;;;;23.95;100.00;98713.91;5097641;28;19962;-60
2021/09/10 06:30:34;;;;;;;;;;;;;;;23.54;100.00;98713.22;5097422;28;19919;-58
2021/09/10 06:32:59;;;;;;;;;;;;;;;23.42;100.00;98714.31;5099958;28;19924;-61
2021/09/10 06:35:24;;;;;;;;;;;;;;;23.47;100.00;98715.56;5099347;28;19916;-60
2021/09/10 06:37:50;;;;;;;;;;;;;;;23.52;100.00;98717.78;5098039;28;20368;-60
2021/09/10 06:40:15;;;;;;;;;;;;;;;23.45;100.00;98719.31;5077360;28;19916;-60
2021/09/10 06:42:42;;;;;;;;;;;;;;;23.71;100.00;98716.94;5094094;28;20240;-60
2021/09/10 06:45:08;;;;;;;;;;;;;;;23.91;100.00;98723.88;5095950;28;19912;-61
2021/09/10 06:47:33;;;;;;;;;;;;;;;23.59;100.00;98724.16;5099230;28;19964;-61
2021/09/10 06:49:58;;;;;;;;;;;;;;;23.68;100.00;98722.50;5096442;28;19923;-60
2021/09/10 06:52:24;;;;;;;;;;;;;;;23.78;100.00;98723.31;5076537;28;20424;-60
2021/09/10 06:54:49;;;;;;;;;;;;;;;24.12;100.00;98726.31;5095102;28;19915;-60
2021/09/10 06:57:14;;;;;;;;;;;;;;;24.16;100.00;98727.69;5098326;28;19926;-60
2021/09/10 06:59:40;;;;;;;;;;;;;;;24.19;100.00;98737.91;5095880;28;19916;-60
2021/09/10 07:02:05;;;;;;;;;;;;;;;24.41;100.00;98731.50;5097871;28;20008;-61
2021/09/10 07:04:31;;;;;;;;;;;;;;;24.42;100.00;98734.94;5098889;28;19951;-61
2021/09/10 07:06:56;;;;;;;;;;;;;;;24.37;100.00;98734.56;5080207;28;19915;-60
2021/09/10 07:09:21;;;;;;;;;;;;;;;24.52;100.00;98732.31;5100030;28;20090;-61
2021/09/10 07:11:48;;;;;;;;;;;;;;;24.58;100.00;98726.47;5096361;28;19916;-60
2021/09/10 07:14:14;;;;;;;;;;;;;;;24.75;100.00;98738.06;5095866;28;19930;-60
2021/09/10 07:16:39;;;;;;;;;;;;;;;24.60;100.00;98746.41;5096985;28;19957;-61
2021/09/10 07:19:05;;;;;;;;;;;;;;;24.52;100.00;98743.69;5091467;28;19951;-60
2021/09/10 07:21:30;;;;;;;;;;;;;;;24.73;100.00;98750.53;5089636;28;19911;-61
2021/09/10 07:23:55;;;;;;;;;;;;;;;24.48;100.00;98754.66;5088575;28;19920;-61
2021/09/10 07:26:23;;;;;;;;;;;;;;;24.64;100.00;98752.22;5092980;28;20403;-59
2021/09/10 07:28:48;;;;;;;;;;;;;;;24.77;100.00;98757.16;5091227;28;19979;-61
2021/09/10 07:31:13;;;;;;;;;;;;;;;24.63;100.00;98755.81;5089068;28;19947;-60
2021/09/10 07:33:42;;;;;;;;;;;;;;;24.52;100.00;98764.75;5089503;28;19928;-60
2021/09/10 07:36:07;;;;;;;;;;;;;;;24.80;100.00;98756.88;5088921;28;19942;-60
2021/09/10 07:38:33;;;;;;;;;;;;;;;24.53;100.00;98755.03;5088979;28;19916;-60
2021/09/10 07:40:58;;;;;;;;;;;;;;;24.54;100.00;98762.81;5092572;28;19915;-60
2021/09/10 07:43:24;;;;;;;;;;;;;;;24.80;100.00;98762.16;5095197;28;19942;-61
2021/09/10 07:45:49;;;;;;;;;;;;;;;24.69;100.00;98760.53;5093126;28;19950;-60
2021/09/10 07:48:17;;;;;;;;;;;;;;;24.60;100.00;98766.66;5091646;28;19912;-61
2021/09/10 07:50:42;;;;;;;;;;;;;;;24.35;100.00;98770.72;5089490;28;19916;-60
2021/09/10 07:53:08;;;;;;;;;;;;;;;24.30;100.00;98770.31;5091077;28;19942;-60
2021/09/10 07:55:33;;;;;;;;;;;;;;;24.44;100.00;98772.50;5089467;28;20258;-60
2021/09/10 07:57:58;;;;;;;;;;;;;;;24.31;100.00;98766.72;5091574;28;19920;-61
2021/09/10 08:00:24;;;;;;;;;;;;;;;24.40;100.00;98768.47;5092457;28;19912;-61
2021/09/10 08:02:49;;;;;;;;;;;;;;;24.55;100.00;98764.47;5088056;28;19916;-59
2021/09/10 08:05:15;;;;;;;;;;;;;;;24.47;100.00;98774.00;5088926;28;19915;-60
2021/09/10 08:07:41;;;;;;;;;;;;;;;24.13;100.00;98777.97;5072427;28;20154;-61
2021/09/10 08:10:06;;;;;;;;;;;;;;;24.47;100.00;98774.88;5089706;28;20002;-60
2021/09/10 08:12:32;;;;;;;;;;;;;;;24.52;100.00;98774.44;5069185;28;19924;-61
2021/09/10 08:14:57;;;;;;;;;;;;;;;24.60;100.00;98770.13;5089095;28;19920;-60
2021/09/10 08:17:25;;;;;;;;;;;;;;;24.34;100.00;98766.44;5086907;28;19944;-59
2021/09/10 08:19:51;;;;;;;;;;;;;;;24.84;100.00;98772.25;5087626;28;19955;-60
2021/09/10 08:22:17;;;;;;;;;;;;;;;25.21;100.00;98770.56;5089479;28;20442;-61
2021/09/10 08:24:44;;;;;;;;;;;;;;;25.88;100.00;98779.78;5090303;28;19922;-60
2021/09/10 08:27:09;;;;;;;;;;;;;;;26.33;100.00;98772.72;5070300;28;19916;-59
2021/09/10 08:29:34;;;;;;;;;;;;;;;25.94;100.00;98782.81;5090972;28;19922;-60
2021/09/10 08:32:00;;;;;;;;;;;;;;;25.60;100.00;98770.28;5091870;28;20414;-61
2021/09/10 08:34:25;;;;;;;;;;;;;;;26.15;100.00;98775.38;5088485;28;19920;-61
2021/09/10 08:36:50;;;;;;;;;;;;;;;26.74;100.00;98790.63;5089299;28;19955;-61
2021/09/10 08:39:16;;;;;;;;;;;;;;;26.92;100.00;98788.75;5077853;28;19912;-61
2021/09/10 08:41:41;;;;;;;;;;;;;;;26.08;100.00;98790.19;5095942;28;19923;-61
2021/09/10 08:44:06;;;;;;;;;;;;;;;26.93;100.00;98785.09;5078111;28;19976;-61
2021/09/10 08:46:36;;;;;;;;;;;;;;;26.97;100.00;98789.09;5092787;28;19916;-61
2021/09/10 08:49:01;;;;;;;;;;;;;;;27.15;100.00;98788.16;5094965;28;19923;-61
2021/09/10 08:51:27;;;;;;;;;;;;;;;27.63;100.00;98792.75;5076497;28;20159;-61
2021/09/10 08:53:52;;;;;;;;;;;;;;;27.45;100.00;98784.97;5095971;28;20327;-61
2021/09/10 08:56:17;;;;;;;;;;;;;;;27.79;100.00;98789.31;5094982;28;19920;-60
2021/09/10 08:58:43;;;;;;;;;;;;;;;27.08;100.00;98793.25;5094083;28;19916;-61
2021/09/10 09:01:08;;;;;;;;;;;;;;;27.45;100.00;98786.78;5096117;28;19916;-61
2021/09/10 09:03:33;;;;;;;;;;;;;;;28.18;100.00;98791.31;5092319;28;20400;-61
2021/09/10 09:05:59;;;;;;;;;;;;;;;28.55;100.00;98792.59;5093887;28;20511;-61
2021/09/10 09:08:25;;;;;;;;;;;;;;;28.73;100.00;98790.56;5094769;28;20002;-61
2021/09/10 09:10:57;;;;;;;;;;;;;;;27.08;100.00;98794.09;5077026;28;19911;-61
2021/09/10 09:13:25;;;;;;;;;;;;;;;28.44;100.00;98785.81;5094512;28;19916;-61
2021/09/10 09:15:58;;;;;;;;;;;;;;;29.34;100.00;98784.69;5096544;28;20479;-61
2021/09/10 09:18:37;;;;;;;;;;;;;;;28.95;100.00;98777.56;5098226;28;19912;-61
2021/09/10 09:21:04;;;;;;;;;;;;;;;29.63;100.00;98789.31;5080441;28;20281;-61
2021/09/10 09:23:29;;;;;;;;;;;;;;;29.48;100.00;98789.25;5064672;28;20030;-61
2021/09/10 09:25:54;;;;;;;;;;;;;;;27.74;100.00;98795.09;5097192;28;20010;-61
2021/09/10 09:28:20;;;;;;;;;;;;;;;28.38;100.00;98802.38;5094339;28;20397;-61
2021/09/10 09:30:46;;;;;;;;;;;;;;;27.49;100.00;98791.59;5094965;28;20056;-61
2021/09/10 09:33:14;;;;;;;;;;;;;;;27.60;100.00;98803.69;5093921;28;20026;-62
2021/09/10 09:35:39;;;;;;;;;;;;;;;27.14;100.00;98803.19;5078154;28;19924;-61
2021/09/10 09:38:11;;;;;;;;;;;;;;;27.29;100.00;98795.50;5092562;28;19916;-61
2021/09/10 09:40:36;;;;;;;;;;;;;;;26.81;100.00;98807.50;5092450;28;19919;-61
2021/09/10 09:43:13;;;;;;;;;;;;;;;28.14;100.00;98800.56;5092639;28;19916;-61
2021/09/10 09:45:38;;;;;;;;;;;;;;;28.48;100.00;98799.56;5094012;28;20029;-60
2021/09/10 09:48:08;;;;;;;;;;;;;;;28.36;100.00;98794.59;5093862;28;20003;-61
2021/09/10 09:50:33;;;;;;;;;;;;;;;29.81;100.00;98794.38;5095647;28;19919;-61
2021/09/10 09:52:58;;;;;;;;;;;;;;;30.13;100.00;98787.09;5075291;28;19926;-61
2021/09/10 09:55:24;;;;;;;;;;;;;;;30.02;100.00;98791.84;5072139;28;19918;-61
2021/09/10 09:57:49;;;;;;;;;;;;;;;29.65;100.00;98791.78;5092098;28;19912;-61
2021/09/10 10:00:14;;;;;;;;;;;;;;;28.40;100.00;98788.97;5093410;28;20453;-61
2021/09/10 10:02:40;;;;;;;;;;;;;;;29.06;100.00;98784.28;5093456;28;19915;-61
2021/09/10 10:05:06;;;;;;;;;;;;;;;29.05;100.00;98783.47;5094348;28;20423;-61
2021/09/10 10:07:39;;;;;;;;;;;;;;;28.35;100.00;98787.66;5092383;28;20019;-61
2021/09/10 10:10:05;;;;;;;;;;;;;;;28.62;100.00;98788.28;5073176;28;19916;-61
2021/09/10 10:12:30;;;;;;;;;;;;;;;28.45;100.00;98791.94;5074496;28;20366;-61
2021/09/10 10:15:02;;;;;;;;;;;;;;;29.04;100.00;98797.75;5072648;28;19916;-60
2021/09/10 10:17:31;;;;;;;;;;;;;;;28.95;100.00;98790.81;5071965;28;19938;-61
2021/09/10 10:19:58;;;;;;;;;;;;;;;29.07;100.00;98792.09;5091754;28;20444;-61
2021/09/10 10:22:36;;;;;;;;;;;;;;;29.83;100.00;98787.03;5095742;28;19916;-61
2021/09/10 10:25:02;;;;;;;;;;;;;;;29.01;100.00;98786.66;5091734;28;20085;-61
2021/09/10 10:27:40;;;;;;;;;;;;;;;29.88;100.00;98776.72;5072590;28;19923;-61
2021/09/10 10:30:14;;;;;;;;;;;;;;;29.61;100.00;98781.53;5093970;28;20446;-61
2021/09/10 10:32:40;;;;;;;;;;;;;;;28.85;100.00;98785.75;5090115;28;19924;-61
2021/09/10 10:35:16;;;;;;;;;;;;;;;29.45;100.00;98794.09;5093210;28;19961;-61
2021/09/10 10:37:43;;;;;;;;;;;;;;;28.49;100.00;98786.16;5093174;28;19915;-61
2021/09/10 10:40:27;;;;;;;;;;;;;;;28.74;100.00;98786.94;5089017;28;20456;-61
2021/09/10 10:42:53;;;;;;;;;;;;;;;28.56;100.00;98789.78;5089232;28;20377;-61
2021/09/10 10:45:37;;;;;;;;;;;;;;;28.67;100.00;98783.31;5092676;28;19977;-61
2021/09/10 10:48:02;;;;;;;;;;;;;;;29.16;100.00;98772.50;5092666;28;20309;-61
2021/09/10 10:50:31;;;;;;;;;;;;;;;28.25;100.00;98772.94;5072222;28;19915;-61
2021/09/10 10:52:56;;;;;;;;;;;;;;;29.32;100.00;98770.78;5089037;28;19919;-61
2021/09/10 10:55:32;;;;;;;;;;;;;;;29.23;100.00;98769.16;5091789;28;19983;-61
2021/09/10 10:58:16;;;;;;;;;;;;;;;29.63;100.00;98773.41;5088391;28;20068;-60
2021/09/10 11:00:45;;;;;;;;;;;;;;;28.41;100.00;98766.78;5089900;28;20139;-61
2021/09/10 11:03:13;;;;;;;;;;;;;;;27.45;100.00;98768.25;5091414;28;19922;-61
2021/09/10 11:05:38;;;;;;;;;;;;;;;28.21;100.00;98763.66;5089086;28;19920;-61
2021/09/10 11:08:04;;;;;;;;;;;;;;;30.06;100.00;98760.47;5071467;28;19982;-61
2021/09/10 11:10:29;;;;;;;;;;;;;;;31.06;100.00;98759.22;5089649;28;19911;-61
2021/09/10 11:12:55;;;;;;;;;;;;;;;30.82;98.70;98766.47;5090207;28;19951;-61
2021/09/10 11:15:28;;;;;;;;;;;;;;;31.15;100.00;98758.09;5090111;28;19912;-60
2021/09/10 11:17:56;;;;;;;;;;;;;;;31.09;100.00;98758.88;5090983;28;19920;-61
2021/09/10 11:20:27;;;;;;;;;;;;;;;30.80;100.00;98768.50;5096038;28;19969;-61
2021/09/10 11:22:53;;;;;;;;;;;;;;;30.19;100.00;98765.16;5094252;28;20034;-61
2021/09/10 11:25:18;;;;;;;;;;;;;;;29.98;100.00;98769.31;5092832;28;20002;-61
2021/09/10 11:27:43;;;;;;;;;;;;;;;30.13;100.00;98768.50;5093055;28;20532;-61
2021/09/10 11:30:10;;;;;;;;;;;;;;;30.68;100.00;98764.66;5091749;28;19970;-61
2021/09/10 11:32:35;;;;;;;;;;;;;;;29.26;100.00;98759.03;5091419;28;20787;-61
2021/09/10 11:35:01;;;;;;;;;;;;;;;29.78;100.00;98762.84;5090893;28;19920;-61
2021/09/10 11:37:27;;;;;;;;;;;;;;;30.07;100.00;98758.63;5091066;28;19958;-61
2021/09/10 11:39:53;;;;;;;;;;;;;;;30.32;100.00;98759.25;5092089;28;19927;-60
2021/09/10 11:42:34;;;;;;;;;;;;;;;30.21;100.00;98763.13;5090358;28;19915;-61
2021/09/10 11:45:00;;;;;;;;;;;;;;;29.89;100.00;98754.47;5080593;28;20229;-61
2021/09/10 11:47:25;;;;;;;;;;;;;;;29.98;100.00;98753.38;5091545;28;19922;-62
2021/09/10 11:49:58;;;;;;;;;;;;;;;30.41;100.00;98752.84;5074506;28;19916;-61
2021/09/10 11:52:30;;;;;;;;;;;;;;;29.94;100.00;98746.78;5092727;28;20509;-61
2021/09/10 11:55:09;;;;;;;;;;;;;;;30.24;100.00;98744.16;5087645;28;19916;-61
2021/09/10 11:57:34;;;;;;;;;;;;;;;30.49;100.00;98749.25;5089010;28;19916;-61
2021/09/10 12:00:00;;;;;;;;;;;;;;;30.63;100.00;98745.75;5090355;28;19974;-61
2021/09/10 12:02:26;;;;;;;;;;;;;;;30.90;100.00;98743.47;5092340;28;19915;-61
2021/09/10 12:04:55;;;;;;;;;;;;;;;31.31;100.00;98737.59;5097830;28;20377;-61
2021/09/10 12:07:25;;;;;;;;;;;;;;;30.72;98.44;98744.66;5095716;28;19908;-61
2021/09/10 12:09:52;;;;;;;;;;;;;;;30.33;100.00;98740.44;5093727;28;19934;-61
2021/09/10 12:12:21;;;;;;;;;;;;;;;30.76;100.00;98735.31;5092498;28;19916;-61
2021/09/10 12:14:53;;;;;;;;;;;;;;;30.83;100.00;98730.88;5096408;28;20505;-61
2021/09/10 12:17:24;;;;;;;;;;;;;;;30.91;98.67;98737.16;5072900;28;19920;-61
2021/09/10 12:19:50;;;;;;;;;;;;;;;30.37;97.62;98740.91;5095688;28;19915;-61
2021/09/10 12:22:24;;;;;;;;;;;;;;;29.17;100.00;98738.84;5095431;28;19916;-61
2021/09/10 12:24:49;;;;;;;;;;;;;;;29.42;100.00;98736.88;5091884;28;19916;-61
2021/09/10 12:27:15;;;;;;;;;;;;;;;28.04;100.00;98731.09;5077208;28;19920;-61
2021/09/10 12:29:40;;;;;;;;;;;;;;;28.90;100.00;98737.50;5096146;28;20391;-61
2021/09/10 12:32:05;;;;;;;;;;;;;;;29.80;100.00;98724.50;5077023;28;20038;-61
2021/09/10 12:34:31;;;;;;;;;;;;;;;29.49;100.00;98724.56;5096177;28;20278;-61